createdAt,value
2019-02-10T00:02:29.204Z,5.77
2019-02-10T00:05:34.995Z,5.64
2019-02-10T00:08:40.760Z,5.91
2019-02-10T00:11:46.554Z,6.13
2019-02-10T00:14:52.315Z,5.79
2019-02-10T00:17:58.110Z,5.38
2019-02-10T00:21:04.069Z,5.65
2019-02-10T00:24:09.846Z,5.58
2019-02-10T00:27:15.731Z,5.75
2019-02-10T00:30:21.500Z,6.07
2019-02-10T00:33:27.267Z,6.14
2019-02-10T00:36:33.698Z,6.37
2019-02-10T00:39:39.562Z,6.30
2019-02-10T00:42:45.325Z,6.26
2019-02-10T00:45:51.077Z,6.35
2019-02-10T00:48:56.917Z,6.43
2019-02-10T00:52:02.661Z,6.44
2019-02-10T00:55:08.530Z,6.29
2019-02-10T00:58:14.283Z,6.42
2019-02-10T01:01:20.038Z,6.24
2019-02-10T01:04:25.807Z,6.22
2019-02-10T01:07:31.868Z,6.15
2019-02-10T01:10:37.620Z,6.10
2019-02-10T01:13:43.409Z,5.97
2019-02-10T01:16:49.197Z,5.89
2019-02-10T01:19:55.112Z,5.53
2019-02-10T01:23:00.883Z,5.95
2019-02-10T01:26:06.668Z,5.80
2019-02-10T01:29:12.504Z,6.17
2019-02-10T01:32:18.550Z,6.16
2019-02-10T01:35:24.345Z,6.23
2019-02-10T01:38:30.243Z,6.30
2019-02-10T01:41:36.019Z,6.39
2019-02-10T01:44:41.900Z,6.30
2019-02-10T01:47:47.769Z,6.31
2019-02-10T01:50:53.589Z,6.39
2019-02-10T01:53:59.366Z,6.35
2019-02-10T01:57:05.245Z,6.28
2019-02-10T02:00:13.295Z,6.25
2019-02-10T02:03:19.150Z,6.17
2019-02-10T02:06:24.894Z,6.08
2019-02-10T02:09:30.667Z,6.15
2019-02-10T02:12:36.421Z,6.27
2019-02-10T02:15:42.185Z,5.96
2019-02-10T02:18:47.955Z,6.04
2019-02-10T02:21:53.765Z,6.25
2019-02-10T02:24:59.549Z,6.26
2019-02-10T02:28:05.407Z,6.02
2019-02-10T02:31:11.166Z,6.05
2019-02-10T02:34:16.936Z,6.07
2019-02-10T02:37:22.700Z,6.06
2019-02-10T02:40:28.463Z,6.05
2019-02-10T02:43:34.367Z,5.98
2019-02-10T02:46:40.162Z,6.01
2019-02-10T02:49:45.969Z,5.97
2019-02-10T02:52:51.776Z,5.62
2019-02-10T02:55:57.547Z,5.74
2019-02-10T02:59:03.313Z,5.57
2019-02-10T03:02:09.068Z,5.81
2019-02-10T03:05:14.816Z,5.87
2019-02-10T03:08:20.592Z,5.74
2019-02-10T03:11:26.400Z,5.90
2019-02-10T03:14:32.148Z,5.75
2019-02-10T03:17:37.937Z,5.86
2019-02-10T03:20:43.680Z,5.93
2019-02-10T03:23:49.433Z,5.79
2019-02-10T03:26:55.204Z,5.81
2019-02-10T03:30:00.975Z,5.72
2019-02-10T03:33:07.070Z,5.54
2019-02-10T03:36:12.814Z,5.64
2019-02-10T03:39:18.598Z,5.35
2019-02-10T03:42:24.588Z,5.32
2019-02-10T03:45:30.479Z,5.20
2019-02-10T03:48:36.229Z,4.92
2019-02-10T03:51:42.005Z,5.15
2019-02-10T03:54:47.848Z,5.34
2019-02-10T03:57:53.730Z,4.57
2019-02-10T04:00:59.611Z,5.12
2019-02-10T04:04:05.480Z,5.24
2019-02-10T04:07:11.281Z,5.32
2019-02-10T04:10:17.049Z,5.13
2019-02-10T04:13:22.816Z,5.23
2019-02-10T04:16:28.627Z,4.53
2019-02-10T04:19:34.387Z,4.69
2019-02-10T04:22:40.170Z,4.98
2019-02-10T04:25:45.969Z,4.16
2019-02-10T04:28:51.744Z,4.63
2019-02-10T04:31:57.501Z,5.06
2019-02-10T04:35:03.290Z,4.61
2019-02-10T04:38:09.044Z,4.94
2019-02-10T04:41:14.832Z,4.97
2019-02-10T04:44:20.595Z,4.39
2019-02-10T04:47:26.453Z,4.52
2019-02-10T04:50:32.207Z,4.47
2019-02-10T04:53:37.981Z,4.41
2019-02-10T04:56:43.786Z,4.56
2019-02-10T04:59:49.565Z,4.74
2019-02-10T05:02:55.347Z,4.75
2019-02-10T05:06:01.135Z,3.91
2019-02-10T05:09:07.450Z,4.08
2019-02-10T05:12:13.206Z,4.81
2019-02-10T05:15:18.958Z,4.26
2019-02-10T05:18:24.995Z,4.84
2019-02-10T05:21:30.759Z,4.96
2019-02-10T05:24:36.549Z,3.54
2019-02-10T05:27:42.387Z,4.15
2019-02-10T05:30:48.144Z,3.59
2019-02-10T05:33:53.944Z,3.16
2019-02-10T05:36:59.697Z,3.90
2019-02-10T05:40:05.850Z,4.13
2019-02-10T05:43:11.617Z,3.67
2019-02-10T05:46:17.386Z,3.82
2019-02-10T05:49:23.166Z,4.18
2019-02-10T05:52:28.985Z,4.10
2019-02-10T05:55:34.807Z,4.38
2019-02-10T05:58:40.589Z,4.76
2019-02-10T06:02:09.938Z,4.96
2019-02-10T06:05:21.479Z,4.53
2019-02-10T06:08:27.314Z,4.80
2019-02-10T06:11:33.089Z,4.25
2019-02-10T06:14:38.865Z,3.63
2019-02-10T06:17:44.646Z,4.74
2019-02-10T06:20:50.438Z,4.59
2019-02-10T06:23:56.286Z,5.44
2019-02-10T06:27:02.038Z,5.50
2019-02-10T06:30:08.534Z,5.78
2019-02-10T06:33:14.346Z,6.02
2019-02-10T06:36:20.118Z,6.08
2019-02-10T06:39:25.930Z,5.34
2019-02-10T06:42:31.709Z,5.83
2019-02-10T06:45:37.621Z,6.19
2019-02-10T06:48:43.396Z,6.64
2019-02-10T06:51:49.201Z,6.74
2019-02-10T06:54:55.000Z,6.92
2019-02-10T07:01:29.980Z,6.95
2019-02-10T07:04:35.890Z,7.23
2019-02-10T07:07:41.757Z,7.30
2019-02-10T07:10:47.557Z,7.51
2019-02-10T07:13:55.655Z,7.76
2019-02-10T07:17:37.478Z,7.78
2019-02-10T07:20:44.046Z,8.09
2019-02-10T07:24:17.464Z,8.12
2019-02-10T07:27:31.469Z,8.14
2019-02-10T07:30:45.871Z,8.29
2019-02-10T07:34:16.518Z,8.59
2019-02-10T07:37:55.439Z,8.46
2019-02-10T07:41:53.830Z,8.93
2019-02-10T07:45:40.349Z,9.05
2019-02-10T07:49:13.162Z,9.39
2019-02-10T07:52:52.378Z,9.25
2019-02-10T07:56:33.661Z,9.68
2019-02-10T07:59:50.678Z,9.58
2019-02-10T08:03:38.643Z,9.69
2019-02-10T08:07:02.811Z,10.04
2019-02-10T08:10:32.220Z,10.08
2019-02-10T08:14:24.761Z,10.41
2019-02-10T08:18:05.572Z,10.56
2019-02-10T08:22:04.130Z,10.67
2019-02-10T08:25:36.010Z,10.43
2019-02-10T08:28:52.322Z,10.59
2019-02-10T08:32:40.711Z,10.83
2019-02-10T08:36:13.143Z,11.10
2019-02-10T08:39:56.842Z,11.21
2019-02-10T08:43:32.203Z,11.41
2019-02-10T08:47:05.660Z,11.51
2019-02-10T08:50:53.646Z,11.84
2019-02-10T08:53:59.459Z,11.44
2019-02-10T08:57:05.251Z,11.93
2019-02-10T09:00:11.902Z,12.13
2019-02-10T09:03:19.622Z,11.69
2019-02-10T09:06:25.165Z,12.31
2019-02-10T09:09:30.995Z,12.32
2019-02-10T09:12:36.753Z,12.40
2019-02-10T09:15:42.548Z,12.37
2019-02-10T09:18:48.311Z,12.53
2019-02-10T09:21:54.102Z,12.29
2019-02-10T09:24:59.859Z,12.14
2019-02-10T09:28:05.647Z,12.62
2019-02-10T09:31:11.498Z,12.77
2019-02-10T09:34:17.252Z,12.51
2019-02-10T09:37:23.045Z,13.10
2019-02-10T09:40:28.858Z,13.18
2019-02-10T09:43:34.733Z,13.39
2019-02-10T09:46:40.613Z,13.28
2019-02-10T09:49:46.452Z,13.59
2019-02-10T09:52:52.232Z,13.21
2019-02-10T09:55:58.033Z,13.31
2019-02-10T09:59:03.973Z,13.55
2019-02-10T10:02:09.756Z,13.96
2019-02-10T10:05:15.932Z,14.03
2019-02-10T10:08:22.896Z,13.86
2019-02-10T10:11:28.695Z,14.32
2019-02-10T10:14:34.631Z,14.02
2019-02-10T10:17:40.677Z,14.01
2019-02-10T10:20:46.447Z,14.48
2019-02-10T10:23:52.340Z,14.59
2019-02-10T10:26:58.232Z,14.76
2019-02-10T10:30:04.328Z,14.55
2019-02-10T10:33:11.044Z,14.90
2019-02-10T10:36:16.834Z,14.88
2019-02-10T10:39:27.342Z,14.63
2019-02-10T10:42:30.166Z,14.50
2019-02-10T10:45:36.010Z,14.56
2019-02-10T10:48:41.799Z,14.46
2019-02-10T10:51:47.663Z,14.13
2019-02-10T10:54:53.453Z,14.34
2019-02-10T10:57:59.277Z,14.64
2019-02-10T11:01:05.042Z,14.64
2019-02-10T11:04:10.835Z,15.34
2019-02-10T11:07:16.655Z,14.70
2019-02-10T11:10:22.442Z,14.71
2019-02-10T11:13:28.284Z,13.90
2019-02-10T11:16:34.075Z,13.97
2019-02-10T11:19:39.857Z,14.84
2019-02-10T11:22:45.833Z,15.25
2019-02-10T11:25:51.578Z,15.18
2019-02-10T11:28:57.469Z,14.57
2019-02-10T11:32:03.259Z,13.59
2019-02-10T11:35:09.355Z,13.80
2019-02-10T11:38:16.315Z,13.93
2019-02-10T11:41:22.126Z,14.15
2019-02-10T11:44:28.182Z,13.64
2019-02-10T11:47:34.075Z,14.42
2019-02-10T11:50:39.902Z,14.76
2019-02-10T11:53:46.791Z,15.25
2019-02-10T11:56:52.961Z,15.40
2019-02-10T11:59:59.002Z,15.21
2019-02-10T12:03:05.734Z,15.45
2019-02-10T12:06:11.543Z,15.68
2019-02-10T12:09:17.351Z,15.59
2019-02-10T12:12:23.156Z,15.16
2019-02-10T12:15:28.974Z,15.09
2019-02-10T12:18:34.831Z,15.21
2019-02-10T12:21:40.601Z,15.35
2019-02-10T12:24:46.399Z,15.65
2019-02-10T12:27:53.873Z,15.04
2019-02-10T12:30:59.665Z,15.27
2019-02-10T12:34:05.568Z,15.11
2019-02-10T12:37:11.546Z,15.10
2019-02-10T12:40:17.324Z,15.30
2019-02-10T12:43:23.168Z,15.32
2019-02-10T12:46:29.262Z,15.33
2019-02-10T12:49:35.231Z,14.65
2019-02-10T12:52:41.027Z,14.51
2019-02-10T12:55:46.815Z,14.70
2019-02-10T12:58:52.608Z,14.84
2019-02-10T13:01:58.378Z,14.68
2019-02-10T13:05:04.241Z,14.92
2019-02-10T13:08:10.030Z,15.11
2019-02-10T13:11:15.789Z,15.35
2019-02-10T13:14:21.604Z,14.93
2019-02-10T13:17:27.446Z,14.37
2019-02-10T13:20:33.228Z,14.87
2019-02-10T13:23:39.172Z,14.51
2019-02-10T13:26:45.005Z,14.01
2019-02-10T13:29:50.786Z,13.93
2019-02-10T13:32:56.589Z,13.90
2019-02-10T13:36:02.529Z,13.61
2019-02-10T13:39:10.179Z,13.73
2019-02-10T13:42:16.480Z,14.00
2019-02-10T13:45:22.346Z,13.99
2019-02-10T13:48:28.152Z,13.85
2019-02-10T13:51:33.948Z,14.23
2019-02-10T13:54:39.728Z,14.25
2019-02-10T13:57:45.653Z,14.05
2019-02-10T14:00:51.469Z,14.22
2019-02-10T14:03:57.485Z,14.03
2019-02-10T14:07:03.410Z,13.75
2019-02-10T14:10:11.148Z,13.65
2019-02-10T14:13:17.067Z,13.53
2019-02-10T14:16:23.048Z,13.77
2019-02-10T14:19:28.985Z,13.74
2019-02-10T14:22:34.784Z,13.59
2019-02-10T14:25:41.577Z,13.77
2019-02-10T14:28:50.187Z,13.91
2019-02-10T14:31:56.059Z,13.57
2019-02-10T14:35:01.834Z,13.28
2019-02-10T14:38:07.652Z,13.12
2019-02-10T14:41:13.435Z,12.89
2019-02-10T14:44:19.265Z,12.69
2019-02-10T14:47:25.038Z,12.68
2019-02-10T14:50:30.819Z,12.79
2019-02-10T14:53:36.671Z,12.68
2019-02-10T14:56:42.555Z,12.55
2019-02-10T14:59:48.314Z,12.81
2019-02-10T15:02:54.305Z,12.97
2019-02-10T15:06:00.112Z,12.91
2019-02-10T15:09:07.975Z,12.93
2019-02-10T15:12:15.083Z,13.11
2019-02-10T15:15:20.931Z,13.26
2019-02-10T15:18:26.772Z,13.32
2019-02-10T15:21:32.648Z,13.09
2019-02-10T15:24:38.441Z,13.11
2019-02-10T15:27:44.464Z,13.12
2019-02-10T15:30:52.549Z,12.94
2019-02-10T15:33:58.375Z,12.85
2019-02-10T15:37:04.704Z,12.97
2019-02-10T15:40:11.119Z,13.06
2019-02-10T15:43:16.939Z,12.97
2019-02-10T15:46:22.838Z,12.71
2019-02-10T15:49:28.669Z,12.84
2019-02-10T15:52:34.470Z,12.87
2019-02-10T15:55:40.249Z,12.84
2019-02-10T15:58:46.318Z,12.56
2019-02-10T16:01:52.079Z,12.58
2019-02-10T16:04:57.891Z,12.33
2019-02-10T16:08:03.683Z,12.31
2019-02-10T16:11:09.471Z,11.95
2019-02-10T16:14:15.268Z,12.15
2019-02-10T16:17:21.099Z,12.06
2019-02-10T16:20:26.983Z,11.94
2019-02-10T16:23:32.886Z,11.68
2019-02-10T16:26:38.668Z,11.85
2019-02-10T16:29:44.587Z,12.04
2019-02-10T16:32:50.510Z,11.81
2019-02-10T16:35:56.283Z,11.73
2019-02-10T16:39:02.174Z,11.88
2019-02-10T16:42:09.697Z,11.97
2019-02-10T16:45:15.632Z,12.00
2019-02-10T16:48:21.415Z,11.61
2019-02-10T16:51:27.203Z,11.89
2019-02-10T16:54:32.974Z,11.85
2019-02-10T16:57:38.860Z,11.55
2019-02-10T17:00:44.773Z,11.80
2019-02-10T17:03:50.661Z,11.85
2019-02-10T17:06:56.433Z,11.89
2019-02-10T17:10:02.229Z,11.86
2019-02-10T17:13:08.049Z,11.61
2019-02-10T17:16:13.850Z,11.62
2019-02-10T17:19:20.637Z,11.61
2019-02-10T17:22:26.419Z,11.60
2019-02-10T17:25:32.250Z,11.55
2019-02-10T17:28:38.031Z,11.53
2019-02-10T17:31:43.818Z,11.49
2019-02-10T17:34:49.585Z,11.41
2019-02-10T17:37:55.479Z,11.23
2019-02-10T17:41:22.902Z,11.29
2019-02-10T17:44:25.702Z,11.27
2019-02-10T17:47:32.493Z,11.11
2019-02-10T17:50:38.326Z,10.94
2019-02-10T17:53:44.229Z,11.00
2019-02-10T17:56:50.096Z,10.88
2019-02-10T17:59:55.877Z,10.95
2019-02-10T18:03:01.695Z,10.77
2019-02-10T18:06:07.564Z,10.79
2019-02-10T18:09:13.341Z,10.89
2019-02-10T18:12:19.156Z,10.86
2019-02-10T18:15:43.781Z,10.79
2019-02-10T18:19:11.644Z,10.81
2019-02-10T18:22:26.000Z,10.81
2019-02-10T18:25:59.764Z,10.67
2019-02-10T18:29:23.276Z,10.62
2019-02-10T18:32:44.002Z,10.75
2019-02-10T18:36:10.030Z,10.58
2019-02-10T18:39:37.443Z,10.57
2019-02-10T18:43:14.329Z,10.56
2019-02-10T18:46:33.438Z,10.34
2019-02-10T18:49:57.110Z,10.42
2019-02-10T18:53:39.935Z,10.31
2019-02-10T18:56:55.745Z,10.35
2019-02-10T19:00:23.437Z,10.36
2019-02-10T19:03:48.150Z,10.29
2019-02-10T19:07:15.294Z,10.35
2019-02-10T19:10:31.578Z,10.22
2019-02-10T19:13:51.669Z,10.23
2019-02-10T19:17:19.152Z,10.11
2019-02-10T19:20:49.685Z,10.26
2019-02-10T19:24:04.554Z,10.14
2019-02-10T19:27:22.804Z,9.89
2019-02-10T19:30:53.380Z,10.00
2019-02-10T19:34:14.858Z,10.02
2019-02-10T19:37:38.347Z,10.14
2019-02-10T19:41:21.177Z,9.41
2019-02-10T19:44:34.391Z,9.88
2019-02-10T19:48:07.935Z,9.70
2019-02-10T19:51:35.171Z,9.98
2019-02-10T19:54:52.780Z,9.91
2019-02-10T19:58:10.746Z,10.13
2019-02-10T20:01:38.188Z,10.02
2019-02-10T20:05:01.666Z,10.06
2019-02-10T20:08:26.355Z,10.16
2019-02-10T20:11:53.971Z,10.20
2019-02-10T20:15:17.588Z,10.02
2019-02-10T20:18:40.904Z,10.16
2019-02-10T20:22:08.624Z,10.13
2019-02-10T20:25:31.999Z,10.24
2019-02-10T20:29:03.602Z,10.21
2019-02-10T20:32:18.879Z,10.22
2019-02-10T20:35:46.505Z,10.13
2019-02-10T20:39:26.406Z,10.12
2019-02-10T20:42:42.154Z,10.13
2019-02-10T20:46:06.584Z,10.12
2019-02-10T20:49:37.236Z,9.99
2019-02-10T20:53:01.849Z,9.96
2019-02-10T20:56:32.395Z,9.90
2019-02-10T20:59:51.822Z,9.93
2019-02-10T21:03:12.541Z,9.91
2019-02-10T21:06:43.103Z,9.80
2019-02-10T21:10:19.376Z,9.93
2019-02-10T21:13:46.005Z,9.91
2019-02-10T21:17:13.404Z,9.85
2019-02-10T21:20:37.990Z,9.64
2019-02-10T21:23:57.033Z,9.70
2019-02-10T21:27:30.904Z,9.76
2019-02-10T21:30:55.500Z,9.56
2019-02-10T21:34:12.977Z,9.65
2019-02-10T21:37:26.712Z,9.29
2019-02-10T21:40:54.403Z,8.99
2019-02-10T21:44:17.890Z,9.22
2019-02-10T21:47:48.721Z,9.25
2019-02-10T21:50:54.545Z,9.37
2019-02-10T21:54:00.437Z,9.45
2019-02-10T21:57:06.427Z,9.55
2019-02-10T22:00:13.490Z,9.46
2019-02-10T22:03:19.409Z,9.41
2019-02-10T22:06:25.176Z,9.44
2019-02-10T22:09:30.952Z,9.47
2019-02-10T22:12:37.161Z,9.44
2019-02-10T22:15:43.203Z,9.36
2019-02-10T22:18:49.104Z,9.39
2019-02-10T22:21:54.900Z,9.50
2019-02-10T22:25:00.665Z,9.48
2019-02-10T22:28:06.449Z,9.51
2019-02-10T22:31:18.635Z,9.48
2019-02-10T22:34:19.722Z,9.52
2019-02-10T22:37:25.534Z,9.47
2019-02-10T22:40:31.313Z,9.43
2019-02-10T22:43:37.111Z,9.32
2019-02-10T22:46:42.898Z,9.29
2019-02-10T22:49:48.688Z,9.27
2019-02-10T22:52:54.481Z,9.29
2019-02-10T22:56:00.231Z,9.27
2019-02-10T22:59:06.990Z,9.13
2019-02-10T23:02:12.842Z,8.71
2019-02-10T23:05:18.589Z,8.86
2019-02-10T23:08:24.985Z,9.17
2019-02-10T23:11:30.788Z,9.26
2019-02-10T23:14:36.587Z,9.01
2019-02-10T23:17:42.341Z,9.09
2019-02-10T23:20:48.096Z,9.26
2019-02-10T23:23:53.891Z,9.25
2019-02-10T23:27:00.773Z,9.10
2019-02-10T23:30:07.717Z,9.09
2019-02-10T23:33:14.578Z,9.10
2019-02-10T23:36:20.342Z,9.01
2019-02-10T23:39:26.155Z,8.89
2019-02-10T23:42:31.943Z,9.03
2019-02-10T23:45:37.696Z,8.93
2019-02-10T23:48:43.452Z,9.01
2019-02-10T23:51:49.203Z,8.98
2019-02-10T23:54:55.014Z,8.78
2019-02-10T23:58:01.035Z,8.98
